• Join FlightAware (Why Join?)
  • Login
  • US Flag 
12:47PM EDT


 

Airport Tracker/Info


-or-


 

Live Flight TrackerFlight Track Log ✈ VH-SFM ✈ 14-May-2014 ✈ YSBK / BWU - YSBK / BWU

Flight Track Log - Related Links

Times and Time Zones

All times are in EDT time to prevent confusion due to time zone crossing. See the VH-SFM flight status page for this flight to view local times or setup timezone preferences in your user account.

Time Position Orientation Groundspeed Altitude Reporting Facility
EDT Latitude Longitude Course Direction KTS MPH feet Rate Location/Type
06:20AM -33.6893 151.1365 97° East 92 106 2,400  Level Aus ATC (RADAR)
06:20AM -33.6909 151.1512 97° East 88 101 2,400  Level Aus ATC (RADAR)
06:22AM -33.7078 151.2180 107° East 93 107 2,400  Level Aus ATC (RADAR)
06:23AM -33.7161 151.2539 105° East 95 109 2,400 120 Level Aus ATC (RADAR)
06:24AM -33.7283 151.2618 152° Southeast 105 121 2,600 60 Climbing Aus ATC (RADAR)
06:25AM -33.7673 151.2484 196° South 117 135 2,600  Level Aus ATC (RADAR)
06:26AM -33.7884 151.2434 191° South 116 133 2,600  Level Aus ATC (RADAR)
06:28AM -33.8537 151.2285 191° South 100 115 2,600  Level Aus ATC (RADAR)
06:29AM -33.8465 151.2232 329° Northwest 107 123 2,600 -120 Level Aus ATC (RADAR)
06:30AM -33.8470 151.2353 93° East 98 113 2,500  Descending Aus ATC (RADAR)
06:31AM -33.8464 151.2388 78° East 92 106 2,700  Climbing Aus ATC (RADAR)
06:32AM -33.8528 151.2319 221° Southwest 107 123 2,500 -60 Descending Aus ATC (RADAR)
06:34AM -33.8177 151.2694 42° Northeast 87 100 2,600  Climbing Aus ATC (RADAR)
06:35AM -33.7945 151.2854 30° Northeast 82 94 2,600  Level Aus ATC (RADAR)
06:35AM -33.7874 151.2885 20° North 82 94 2,600  Level Aus ATC (RADAR)
06:37AM -33.7396 151.1975 360° North 2,100 -180 Descending Aus ATC (Calculated)
06:38AM -33.7396 151.1975 244° Southwest 2,100  Level Aus ATC (Calculated)
06:39AM -33.7560 151.1566 244° Southwest  Level FlightAware Approximate
06:40AM -33.7775 151.1352 34° Northeast  Level Estimated
06:41AM -33.7086 151.1389 302° West  Level FlightAware Approximate
06:42AM -33.6937 151.1105 302° West  Level FlightAware Approximate
06:43AM -33.6787 151.0821 302° West  Level FlightAware Approximate
06:43AM -33.7229 151.0592 56° Northeast 2,100  Level Aus ATC (Calculated)
06:44AM -33.6937 151.1105 122° Southeast  Level FlightAware Approximate
06:45AM -33.6969 151.1288 106° East  Level FlightAware Approximate
06:46AM -33.7280 151.1279 95° East  Level FlightAware Approximate
06:47AM -33.7304 151.1613 95° East  Level FlightAware Approximate
06:48AM -33.7328 151.1948 95° East  Level FlightAware Approximate
06:49AM -33.7353 151.2283 95° East  Level FlightAware Approximate
06:50AM -33.7545 151.2039 220° Southwest  Level Estimated
06:50AM -33.8167 150.9167 82° East  Level Aus ATC (Calculated)
06:51AM -33.7825 151.2052 178° South  Level FlightAware Approximate
06:52AM -33.8554 150.9424 151° Southeast  Level FlightAware Approximate
06:53AM -33.8799 150.9587 151° Southeast  Level FlightAware Approximate
06:53AM -33.9244 150.9884 209° Southwest  Level Aus ATC (Calculated)
06:55AM -33.9244 150.9883 151° Southeast  Level Estimated
06:56AM -33.9244 150.9883 North  Level Estimated
06:57AM -33.9244 150.9883 North  Level Estimated
06:58AM -33.9244 150.9883 North  Level Estimated
06:59AM -33.9244 150.9883 34° Northeast  Level Estimated
07:00AM -33.9244 150.9883 23° Northeast  Level Estimated
07:01AM -33.9244 150.9883 23° Northeast  Level Estimated